createdAt,value
2018-10-21T00:00:24.280Z,0.00
2018-10-21T00:01:24.267Z,0.00
2018-10-21T00:02:24.307Z,0.00
2018-10-21T00:03:24.282Z,0.00
2018-10-21T00:04:24.217Z,0.00
2018-10-21T00:05:24.218Z,0.00
2018-10-21T00:06:24.209Z,0.00
2018-10-21T00:07:24.198Z,0.00
2018-10-21T00:08:24.181Z,0.00
2018-10-21T00:09:24.168Z,0.00
2018-10-21T00:10:24.166Z,0.00
2018-10-21T00:11:24.148Z,0.00
2018-10-21T00:12:24.140Z,0.00
2018-10-21T00:13:24.138Z,0.00
2018-10-21T00:14:24.137Z,0.00
2018-10-21T00:15:24.230Z,0.00
2018-10-21T00:16:24.103Z,0.00
2018-10-21T00:17:24.073Z,0.00
2018-10-21T00:18:24.070Z,0.00
2018-10-21T00:19:24.071Z,0.00
2018-10-21T00:20:24.053Z,0.00
2018-10-21T00:21:24.042Z,0.00
2018-10-21T00:22:24.034Z,0.00
2018-10-21T00:23:24.026Z,0.00
2018-10-21T00:24:24.000Z,0.00
2018-10-21T00:25:23.998Z,0.00
2018-10-21T00:26:23.985Z,0.00
2018-10-21T00:27:23.974Z,0.00
2018-10-21T00:28:23.968Z,0.00
2018-10-21T00:29:23.963Z,0.00
2018-10-21T00:30:23.953Z,0.00
2018-10-21T00:31:23.926Z,0.00
2018-10-21T00:32:23.918Z,0.00
2018-10-21T00:33:23.909Z,0.00
2018-10-21T00:34:23.892Z,0.00
2018-10-21T00:35:23.905Z,0.00
2018-10-21T00:36:23.871Z,0.00
2018-10-21T00:37:23.856Z,0.00
2018-10-21T00:38:23.855Z,0.00
2018-10-21T00:39:23.857Z,0.00
2018-10-21T00:40:23.837Z,0.00
2018-10-21T00:41:23.829Z,0.00
2018-10-21T00:42:23.812Z,0.00
2018-10-21T00:43:23.798Z,0.00
2018-10-21T00:44:23.799Z,0.00
2018-10-21T00:45:23.769Z,0.00
2018-10-21T00:46:23.762Z,0.00
2018-10-21T00:47:23.754Z,0.00
2018-10-21T00:48:23.752Z,0.00
2018-10-21T00:49:23.786Z,0.00
2018-10-21T00:50:23.725Z,0.00
2018-10-21T00:51:23.712Z,0.00
2018-10-21T00:52:23.746Z,0.00
2018-10-21T00:53:23.682Z,0.00
2018-10-21T00:54:23.690Z,0.00
2018-10-21T00:55:23.669Z,0.00
2018-10-21T00:56:23.652Z,0.00
2018-10-21T00:57:23.656Z,0.00
2018-10-21T00:58:23.633Z,0.00
2018-10-21T00:59:23.619Z,0.00
2018-10-21T01:00:23.614Z,0.00
2018-10-21T01:01:23.611Z,0.00
2018-10-21T01:02:23.608Z,0.00
2018-10-21T01:03:23.582Z,0.00
2018-10-21T01:04:23.563Z,0.00
2018-10-21T01:05:23.559Z,0.00
2018-10-21T01:06:23.563Z,0.00
2018-10-21T01:07:23.543Z,0.00
2018-10-21T01:08:23.532Z,0.00
2018-10-21T01:09:23.513Z,0.00
2018-10-21T01:10:23.508Z,0.00
2018-10-21T01:11:23.506Z,0.00
2018-10-21T01:12:23.477Z,0.00
2018-10-21T01:13:23.493Z,0.00
2018-10-21T01:14:23.460Z,0.00
2018-10-21T01:15:23.467Z,0.00
2018-10-21T01:16:23.439Z,0.00
2018-10-21T01:17:23.423Z,0.00
2018-10-21T01:18:23.424Z,0.00
2018-10-21T01:19:23.399Z,0.00
2018-10-21T01:20:23.408Z,0.00
2018-10-21T01:21:23.417Z,0.00
2018-10-21T01:22:23.371Z,0.00
2018-10-21T01:23:23.379Z,0.00
2018-10-21T01:24:23.358Z,0.00
2018-10-21T01:25:23.352Z,0.00
2018-10-21T01:26:23.325Z,0.00
2018-10-21T01:27:23.319Z,0.00
2018-10-21T01:28:23.320Z,0.00
2018-10-21T01:29:23.301Z,0.00
2018-10-21T01:30:23.280Z,0.00
2018-10-21T01:31:23.277Z,0.00
2018-10-21T01:32:23.275Z,0.00
2018-10-21T01:33:23.266Z,0.00
2018-10-21T01:34:23.235Z,0.00
2018-10-21T01:35:23.227Z,0.00
2018-10-21T01:36:23.460Z,0.00
2018-10-21T01:37:23.222Z,0.00
2018-10-21T01:38:23.271Z,0.00
2018-10-21T01:39:23.192Z,0.00
2018-10-21T01:40:23.173Z,0.00
2018-10-21T01:41:23.159Z,0.00
2018-10-21T01:42:23.156Z,0.00
2018-10-21T01:43:23.162Z,0.00
2018-10-21T01:44:23.136Z,0.00
2018-10-21T01:45:23.118Z,0.00
2018-10-21T01:46:23.112Z,0.00
2018-10-21T01:47:23.103Z,0.00
2018-10-21T01:48:23.123Z,0.00
2018-10-21T01:49:23.080Z,0.00
2018-10-21T01:50:23.070Z,0.00
2018-10-21T01:51:23.060Z,0.00
2018-10-21T01:52:23.097Z,0.00
2018-10-21T01:53:23.049Z,0.00
2018-10-21T01:54:23.028Z,0.00
2018-10-21T01:55:23.019Z,0.00
2018-10-21T01:56:23.005Z,0.00
2018-10-21T01:57:23.012Z,0.00
2018-10-21T01:58:22.977Z,0.00
2018-10-21T01:59:22.969Z,0.00
2018-10-21T02:00:22.962Z,0.00
2018-10-21T02:01:22.949Z,0.00
2018-10-21T02:02:22.945Z,0.00
2018-10-21T02:03:22.952Z,0.00
2018-10-21T02:04:22.912Z,0.00
2018-10-21T02:05:22.908Z,0.00
2018-10-21T02:06:22.893Z,0.00
2018-10-21T02:07:22.895Z,0.00
2018-10-21T02:08:22.877Z,0.00
2018-10-21T02:09:22.881Z,0.00
2018-10-21T02:10:22.848Z,0.00
2018-10-21T02:11:22.856Z,0.00
2018-10-21T02:12:22.834Z,0.00
2018-10-21T02:13:22.861Z,0.00
2018-10-21T02:14:22.814Z,0.00
2018-10-21T02:15:22.801Z,0.00
2018-10-21T02:16:22.780Z,0.00
2018-10-21T02:17:22.789Z,0.00
2018-10-21T02:18:22.765Z,0.00
2018-10-21T02:19:22.752Z,0.00
2018-10-21T02:20:22.757Z,0.00
2018-10-21T02:21:22.735Z,0.00
2018-10-21T02:22:22.734Z,0.00
2018-10-21T02:23:22.709Z,0.00
2018-10-21T02:24:22.708Z,0.00
2018-10-21T02:25:22.700Z,0.00
2018-10-21T02:26:22.721Z,0.00
2018-10-21T02:27:22.674Z,0.00
2018-10-21T02:28:22.691Z,0.00
2018-10-21T02:29:22.661Z,0.00
2018-10-21T02:30:22.633Z,0.00
2018-10-21T02:31:22.628Z,0.00
2018-10-21T02:32:22.618Z,0.00
2018-10-21T02:33:22.707Z,0.00
2018-10-21T02:34:22.609Z,0.00
2018-10-21T02:35:22.589Z,0.00
2018-10-21T02:36:22.581Z,0.00
2018-10-21T02:37:22.563Z,0.00
2018-10-21T02:38:22.551Z,0.00
2018-10-21T02:39:22.565Z,0.00
2018-10-21T02:40:22.530Z,0.00
2018-10-21T02:41:22.518Z,0.00
2018-10-21T02:42:22.525Z,0.00
2018-10-21T02:43:22.513Z,0.00
2018-10-21T02:44:22.481Z,0.00
2018-10-21T02:45:22.478Z,0.00
2018-10-21T02:46:22.479Z,0.00
2018-10-21T02:47:22.465Z,0.00
2018-10-21T02:48:22.436Z,0.00
2018-10-21T02:49:22.439Z,0.00
2018-10-21T02:50:22.444Z,0.00
2018-10-21T02:51:22.410Z,0.00
2018-10-21T02:52:22.417Z,0.00
2018-10-21T02:53:22.404Z,0.00
2018-10-21T02:54:22.372Z,0.00
2018-10-21T02:55:22.394Z,0.00
2018-10-21T02:56:22.350Z,0.00
2018-10-21T02:57:22.474Z,0.00
2018-10-21T02:58:22.335Z,0.00
2018-10-21T02:59:22.347Z,0.00
2018-10-21T03:00:22.327Z,0.00
2018-10-21T03:01:22.300Z,0.00
2018-10-21T03:02:22.291Z,0.00
2018-10-21T03:03:22.303Z,0.00
2018-10-21T03:04:22.274Z,0.00
2018-10-21T03:05:22.257Z,0.00
2018-10-21T03:06:22.250Z,0.00
2018-10-21T03:07:22.234Z,0.00
2018-10-21T03:08:22.224Z,0.00
2018-10-21T03:09:22.274Z,0.00
2018-10-21T03:10:22.223Z,0.00
2018-10-21T03:11:22.204Z,0.00
2018-10-21T03:12:22.194Z,0.00
2018-10-21T03:13:22.170Z,0.00
2018-10-21T03:14:22.159Z,0.00
2018-10-21T03:15:22.159Z,0.00
2018-10-21T03:16:22.140Z,0.00
2018-10-21T03:17:22.143Z,0.00
2018-10-21T03:18:22.144Z,0.00
2018-10-21T03:19:22.106Z,0.00
2018-10-21T03:20:22.133Z,0.00
2018-10-21T03:21:22.213Z,0.00
2018-10-21T03:22:22.077Z,0.00
2018-10-21T03:23:22.083Z,0.00
2018-10-21T03:24:22.058Z,0.00
2018-10-21T03:25:22.047Z,0.00
2018-10-21T03:26:22.043Z,0.00
2018-10-21T03:27:22.020Z,0.00
2018-10-21T03:28:22.016Z,0.00
2018-10-21T03:29:22.011Z,0.00
2018-10-21T03:30:22.004Z,0.00
2018-10-21T03:31:22.005Z,0.00
2018-10-21T03:32:21.965Z,0.00
2018-10-21T03:33:22.237Z,0.00
2018-10-21T03:34:21.951Z,0.00
2018-10-21T03:35:21.950Z,0.00
2018-10-21T03:36:21.937Z,0.00
2018-10-21T03:37:21.921Z,0.00
2018-10-21T03:38:21.910Z,0.00
2018-10-21T03:39:21.893Z,0.00
2018-10-21T03:40:21.886Z,0.00
2018-10-21T03:41:21.875Z,0.00
2018-10-21T03:42:21.929Z,0.00
2018-10-21T03:43:21.857Z,0.00
2018-10-21T03:44:21.843Z,0.00
2018-10-21T03:45:21.834Z,0.00
2018-10-21T03:46:21.828Z,0.00
2018-10-21T03:47:21.844Z,0.00
2018-10-21T03:48:21.809Z,0.00
2018-10-21T03:49:21.784Z,0.00
2018-10-21T03:50:21.769Z,0.00
2018-10-21T03:51:21.770Z,0.00
2018-10-21T03:52:21.757Z,0.00
2018-10-21T03:53:21.774Z,0.00
2018-10-21T03:54:21.745Z,0.00
2018-10-21T03:55:21.733Z,0.00
2018-10-21T03:56:21.709Z,0.00
2018-10-21T03:57:21.700Z,0.00
2018-10-21T03:58:21.695Z,0.00
2018-10-21T03:59:21.684Z,0.00
2018-10-21T04:00:21.668Z,0.00
2018-10-21T04:01:21.675Z,0.00
2018-10-21T04:02:21.669Z,0.00
2018-10-21T04:03:21.647Z,0.00
2018-10-21T04:04:21.623Z,0.00
2018-10-21T04:05:21.618Z,0.00
2018-10-21T04:06:21.608Z,0.00
2018-10-21T04:07:21.589Z,0.00
2018-10-21T04:08:21.596Z,0.00
2018-10-21T04:09:21.584Z,0.00
2018-10-21T04:10:21.570Z,0.00
2018-10-21T04:11:21.563Z,0.00
2018-10-21T04:12:21.540Z,0.00
2018-10-21T04:13:21.530Z,0.00
2018-10-21T04:14:21.540Z,0.00
2018-10-21T04:15:21.524Z,0.00
2018-10-21T04:16:21.520Z,0.00
2018-10-21T04:17:21.497Z,0.00
2018-10-21T04:18:21.476Z,0.00
2018-10-21T04:19:21.469Z,0.00
2018-10-21T04:20:21.467Z,0.00
2018-10-21T04:21:21.441Z,0.00
2018-10-21T04:22:21.428Z,0.00
2018-10-21T04:23:21.457Z,0.00
2018-10-21T04:24:21.422Z,0.00
2018-10-21T04:25:21.410Z,0.00
2018-10-21T04:26:21.392Z,0.00
2018-10-21T04:27:21.372Z,0.00
2018-10-21T04:28:21.500Z,0.00
2018-10-21T04:29:21.372Z,0.00
2018-10-21T04:30:21.351Z,0.00
2018-10-21T04:31:21.339Z,0.00
2018-10-21T04:32:21.324Z,0.00
2018-10-21T04:33:21.323Z,0.00
2018-10-21T04:34:21.323Z,0.00
2018-10-21T04:35:21.326Z,0.00
2018-10-21T04:36:21.278Z,0.00
2018-10-21T04:37:21.270Z,0.00
2018-10-21T04:38:21.266Z,0.00
2018-10-21T04:39:21.272Z,0.00
2018-10-21T04:40:21.238Z,0.00
2018-10-21T04:41:21.249Z,0.00
2018-10-21T04:42:21.220Z,0.00
2018-10-21T04:43:21.217Z,0.00
2018-10-21T04:44:21.216Z,0.00
2018-10-21T04:45:21.182Z,0.00
2018-10-21T04:46:21.206Z,0.00
2018-10-21T04:47:21.154Z,0.00
2018-10-21T04:48:21.149Z,0.00
2018-10-21T04:49:21.135Z,0.00
2018-10-21T04:50:21.139Z,0.00
2018-10-21T04:51:21.128Z,0.00
2018-10-21T04:52:22.851Z,0.00
2018-10-21T04:53:21.101Z,0.00
2018-10-21T04:54:21.080Z,0.00
2018-10-21T04:55:21.093Z,0.00
2018-10-21T04:56:21.063Z,0.00
2018-10-21T04:57:21.062Z,0.00
2018-10-21T04:58:21.046Z,0.00
2018-10-21T04:59:21.024Z,0.00
2018-10-21T05:00:21.025Z,0.00
2018-10-21T05:01:21.016Z,0.00
2018-10-21T05:02:21.016Z,0.00
2018-10-21T05:03:21.006Z,0.00
2018-10-21T05:04:20.985Z,0.00
2018-10-21T05:05:20.977Z,0.00
2018-10-21T05:06:20.971Z,0.00
2018-10-21T05:07:20.960Z,0.00
2018-10-21T05:08:20.933Z,0.00
2018-10-21T05:09:20.921Z,0.00
2018-10-21T05:10:20.928Z,0.00
2018-10-21T05:11:20.907Z,0.00
2018-10-21T05:12:20.898Z,0.00
2018-10-21T05:13:20.877Z,0.00
2018-10-21T05:14:20.863Z,0.00
2018-10-21T05:15:20.929Z,0.00
2018-10-21T05:16:20.924Z,0.00
2018-10-21T05:17:20.838Z,0.00
2018-10-21T05:18:20.825Z,0.00
2018-10-21T05:19:20.806Z,0.00
2018-10-21T05:20:20.797Z,0.00
2018-10-21T05:21:20.785Z,0.00
2018-10-21T05:22:20.788Z,0.00
2018-10-21T05:23:20.783Z,0.00
2018-10-21T05:24:20.763Z,0.00
2018-10-21T05:25:20.743Z,0.00
2018-10-21T05:26:20.744Z,0.00
2018-10-21T05:27:20.742Z,0.00
2018-10-21T05:28:20.714Z,0.00
2018-10-21T05:29:20.703Z,0.00
2018-10-21T05:30:20.703Z,4.00
2018-10-21T05:31:20.685Z,0.00
2018-10-21T05:32:20.695Z,0.00
2018-10-21T05:33:20.658Z,4.00
2018-10-21T05:34:20.644Z,0.00
2018-10-21T05:35:20.642Z,4.00
2018-10-21T05:36:20.628Z,4.00
2018-10-21T05:37:20.630Z,4.00
2018-10-21T05:38:20.624Z,4.00
2018-10-21T05:39:20.590Z,4.00
2018-10-21T05:40:20.603Z,8.00
2018-10-21T05:41:20.574Z,8.00
2018-10-21T05:42:20.583Z,12.00
2018-10-21T05:43:20.547Z,12.00
2018-10-21T05:44:20.545Z,12.00
2018-10-21T05:45:20.540Z,16.00
2018-10-21T05:46:20.521Z,16.00
2018-10-21T05:47:20.627Z,16.00
2018-10-21T05:48:20.542Z,24.00
2018-10-21T05:49:20.495Z,28.00
2018-10-21T05:50:20.480Z,32.00
2018-10-21T05:51:20.467Z,32.00
2018-10-21T05:52:20.811Z,36.00
2018-10-21T05:53:20.452Z,44.00
2018-10-21T05:54:20.436Z,44.00
2018-10-21T05:55:20.429Z,52.00
2018-10-21T05:56:20.431Z,56.00
2018-10-21T05:57:20.400Z,64.00
2018-10-21T05:58:20.497Z,72.00
2018-10-21T05:59:20.381Z,80.00
2018-10-21T06:00:20.373Z,88.00
2018-10-21T06:01:20.369Z,96.00
2018-10-21T06:02:20.357Z,104.00
2018-10-21T06:03:20.341Z,112.00
2018-10-21T06:04:20.335Z,120.00
2018-10-21T06:05:20.311Z,132.00
2018-10-21T06:06:20.308Z,144.00
2018-10-21T06:07:20.294Z,156.00
2018-10-21T06:08:20.290Z,168.00
2018-10-21T06:09:20.287Z,180.00
2018-10-21T06:10:20.272Z,196.00
2018-10-21T06:11:20.278Z,208.00
2018-10-21T06:12:20.237Z,228.00
2018-10-21T06:13:20.233Z,244.00
2018-10-21T06:14:20.237Z,260.00
2018-10-21T06:15:20.209Z,284.00
2018-10-21T06:16:20.239Z,300.00
2018-10-21T06:17:20.206Z,324.00
2018-10-21T06:18:20.176Z,356.00
2018-10-21T06:19:20.187Z,392.00
2018-10-21T06:20:20.159Z,420.00
2018-10-21T06:21:20.160Z,444.00
2018-10-21T06:22:20.137Z,468.00
2018-10-21T06:23:20.138Z,504.00
2018-10-21T06:24:20.117Z,560.00
2018-10-21T06:25:20.116Z,632.00
2018-10-21T06:26:20.088Z,696.00
2018-10-21T06:27:20.080Z,728.00
2018-10-21T06:28:20.087Z,764.00
2018-10-21T06:29:20.057Z,808.00
2018-10-21T06:30:20.073Z,848.00
2018-10-21T06:31:20.035Z,896.00
2018-10-21T06:32:20.030Z,936.00
2018-10-21T06:33:20.019Z,980.00
2018-10-21T06:34:20.023Z,1028.00
2018-10-21T06:35:19.992Z,1084.00
2018-10-21T06:36:20.010Z,1140.00
2018-10-21T06:37:19.965Z,1196.00
2018-10-21T06:38:19.960Z,1244.00
2018-10-21T06:39:19.950Z,1284.00
2018-10-21T06:40:19.960Z,1332.00
2018-10-21T06:41:19.933Z,1380.00
2018-10-21T06:42:19.935Z,1432.00
2018-10-21T06:43:19.903Z,1476.00
2018-10-21T06:44:19.889Z,1540.00
2018-10-21T06:45:19.956Z,1608.00
2018-10-21T06:46:19.890Z,1676.00
2018-10-21T06:47:19.883Z,1752.00
2018-10-21T06:48:19.910Z,1928.00
2018-10-21T06:49:19.836Z,3128.00
2018-10-21T06:50:19.831Z,5396.00
2018-10-21T06:51:19.833Z,8508.00
2018-10-21T06:52:19.811Z,12160.00
2018-10-21T06:53:19.801Z,14784.00
2018-10-21T06:54:19.793Z,16864.00
2018-10-21T06:55:19.777Z,19296.00
2018-10-21T06:56:19.817Z,22464.00
2018-10-21T06:57:19.942Z,22720.00
2018-10-21T06:58:19.742Z,23264.00
2018-10-21T06:59:19.735Z,24512.00
2018-10-21T07:00:19.735Z,24896.00
2018-10-21T07:01:19.710Z,24640.00
2018-10-21T07:02:19.732Z,24512.00
2018-10-21T07:03:19.689Z,23840.00
2018-10-21T07:04:19.777Z,24800.00
2018-10-21T07:05:19.679Z,26272.00
2018-10-21T07:06:19.660Z,27040.00
2018-10-21T07:07:19.654Z,25184.00
2018-10-21T07:08:19.644Z,26304.00
2018-10-21T07:09:19.621Z,27456.00
2018-10-21T07:10:19.624Z,27744.00
2018-10-21T07:11:19.614Z,24640.00
2018-10-21T07:12:19.592Z,10240.00
2018-10-21T07:13:19.590Z,4316.00
2018-10-21T07:14:19.588Z,4264.00
2018-10-21T07:15:19.663Z,4276.00
2018-10-21T07:16:19.753Z,4316.00
2018-10-21T07:17:19.538Z,4360.00
2018-10-21T07:18:19.524Z,4364.00
2018-10-21T07:19:19.524Z,4404.00
2018-10-21T07:20:19.500Z,4420.00
2018-10-21T07:21:19.494Z,4432.00
2018-10-21T07:22:19.495Z,4476.00
2018-10-21T07:23:19.477Z,4520.00
2018-10-21T07:24:19.487Z,4568.00
2018-10-21T07:25:19.460Z,4668.00
2018-10-21T07:26:19.435Z,4852.00
2018-10-21T07:27:19.432Z,11052.00
2018-10-21T07:28:19.538Z,32224.00
2018-10-21T07:29:19.410Z,41888.00
2018-10-21T07:30:19.393Z,42368.00
2018-10-21T07:31:19.395Z,42688.00
2018-10-21T07:32:19.372Z,44544.00
2018-10-21T07:33:19.383Z,44448.00
2018-10-21T07:34:19.456Z,44512.00
2018-10-21T07:35:19.337Z,43552.00
2018-10-21T07:36:19.380Z,42240.00
2018-10-21T07:37:19.319Z,43936.00
2018-10-21T07:38:19.304Z,42848.00
2018-10-21T07:39:19.293Z,45568.00
2018-10-21T07:40:19.398Z,45536.00
2018-10-21T07:41:19.281Z,44704.00
2018-10-21T07:42:19.267Z,45216.00
2018-10-21T07:43:19.262Z,44928.00
2018-10-21T07:44:19.249Z,46176.00
2018-10-21T07:45:19.231Z,45824.00
2018-10-21T07:46:19.334Z,44928.00
2018-10-21T07:47:19.223Z,43712.00
2018-10-21T07:48:19.189Z,43936.00
2018-10-21T07:49:19.186Z,43488.00
2018-10-21T07:50:19.173Z,43936.00
2018-10-21T07:51:19.174Z,45824.00
2018-10-21T07:52:19.182Z,45664.00
2018-10-21T07:53:19.137Z,47552.00
2018-10-21T07:54:19.127Z,51104.00
2018-10-21T07:55:19.202Z,52928.00
2018-10-21T07:56:19.138Z,54816.00
2018-10-21T07:57:19.099Z,54624.00
2018-10-21T07:58:19.096Z,54432.00
2018-10-21T07:59:19.072Z,54528.00
2018-10-21T08:00:19.058Z,55680.00
2018-10-21T08:01:19.085Z,55072.00
2018-10-21T08:02:19.056Z,57440.00
2018-10-21T08:03:19.031Z,56576.00
2018-10-21T08:04:19.027Z,57184.00
2018-10-21T08:05:19.005Z,58944.00
2018-10-21T08:06:19.002Z,58688.00
2018-10-21T08:07:18.987Z,57632.00
2018-10-21T08:08:18.995Z,57312.00
2018-10-21T08:09:18.991Z,47776.00
2018-10-21T08:10:18.959Z,22336.00
2018-10-21T08:11:18.942Z,7292.00
2018-10-21T08:12:18.927Z,6944.00
2018-10-21T08:13:18.915Z,6664.00
2018-10-21T08:14:18.919Z,6476.00
2018-10-21T08:15:18.999Z,6244.00
2018-10-21T08:16:19.013Z,5952.00
2018-10-21T08:17:18.896Z,5688.00
2018-10-21T08:18:18.866Z,5436.00
2018-10-21T08:19:18.874Z,5304.00
2018-10-21T08:20:18.839Z,5240.00
2018-10-21T08:21:18.958Z,5164.00
2018-10-21T08:22:18.848Z,5120.00
2018-10-21T08:23:18.809Z,5172.00
2018-10-21T08:24:18.818Z,5460.00
2018-10-21T08:25:18.785Z,12212.00
2018-10-21T08:26:18.794Z,39040.00
2018-10-21T08:27:18.842Z,55616.00
2018-10-21T08:28:18.938Z,41728.00
2018-10-21T08:29:18.755Z,20896.00
2018-10-21T08:30:18.743Z,6608.00
2018-10-21T08:31:18.722Z,6152.00
2018-10-21T08:32:18.740Z,6040.00
2018-10-21T08:33:18.701Z,6004.00
2018-10-21T08:34:18.835Z,6008.00
2018-10-21T08:35:18.692Z,6048.00
2018-10-21T08:36:18.672Z,6072.00
2018-10-21T08:37:18.664Z,6032.00
2018-10-21T08:38:18.644Z,6004.00
2018-10-21T08:39:18.636Z,5936.00
2018-10-21T08:40:18.628Z,5900.00
2018-10-21T08:41:18.645Z,5840.00
2018-10-21T08:42:18.616Z,5796.00
2018-10-21T08:43:18.589Z,5768.00
2018-10-21T08:44:18.590Z,5720.00
2018-10-21T08:45:18.570Z,5668.00
2018-10-21T08:46:18.646Z,5644.00
2018-10-21T08:47:18.562Z,5584.00
2018-10-21T08:48:18.554Z,5532.00
2018-10-21T08:49:18.595Z,5488.00
2018-10-21T08:50:18.516Z,5420.00
2018-10-21T08:51:18.502Z,5352.00
2018-10-21T08:52:18.699Z,5280.00
2018-10-21T08:53:18.493Z,5212.00
2018-10-21T08:54:18.479Z,5132.00
2018-10-21T08:55:18.475Z,5076.00
2018-10-21T08:56:18.446Z,5016.00
2018-10-21T08:57:18.433Z,4968.00
2018-10-21T08:58:18.576Z,4940.00
2018-10-21T08:59:18.420Z,4912.00
2018-10-21T09:00:18.419Z,4888.00
2018-10-21T09:01:18.495Z,4856.00
2018-10-21T09:02:18.383Z,4832.00
2018-10-21T09:03:18.404Z,4796.00
2018-10-21T09:04:18.561Z,4760.00
2018-10-21T09:05:18.390Z,4716.00
2018-10-21T09:06:18.343Z,4684.00
2018-10-21T09:07:18.335Z,4656.00
2018-10-21T09:08:18.322Z,4620.00
2018-10-21T09:09:18.300Z,4600.00
2018-10-21T09:10:18.444Z,4576.00
2018-10-21T09:11:18.284Z,4532.00
2018-10-21T09:12:18.275Z,4504.00
2018-10-21T09:13:18.274Z,4472.00
2018-10-21T09:14:18.267Z,4436.00
2018-10-21T09:15:18.454Z,4376.00
2018-10-21T09:16:18.361Z,4324.00
2018-10-21T09:17:18.218Z,4276.00
2018-10-21T09:18:18.216Z,4232.00
2018-10-21T09:19:18.286Z,4188.00
2018-10-21T09:20:18.201Z,4152.00
2018-10-21T09:21:18.176Z,4132.00
2018-10-21T09:22:18.260Z,4104.00
2018-10-21T09:23:18.149Z,4096.00
2018-10-21T09:24:18.148Z,4072.00
2018-10-21T09:25:18.233Z,4016.00
2018-10-21T09:26:18.121Z,3992.00
2018-10-21T09:27:18.116Z,3964.00
2018-10-21T09:28:18.091Z,3948.00
2018-10-21T09:29:18.094Z,3932.00
2018-10-21T09:30:18.086Z,3900.00
2018-10-21T09:31:18.160Z,3880.00
2018-10-21T09:32:18.059Z,3856.00
2018-10-21T09:33:18.114Z,3836.00
2018-10-21T09:34:18.148Z,3820.00
2018-10-21T09:35:18.040Z,3816.00
2018-10-21T09:36:18.004Z,3804.00
2018-10-21T09:37:17.993Z,3768.00
2018-10-21T09:38:17.992Z,3748.00
2018-10-21T09:39:17.977Z,3724.00
2018-10-21T09:40:18.040Z,3680.00
2018-10-21T09:41:17.968Z,3660.00
2018-10-21T09:42:18.104Z,3652.00
2018-10-21T09:43:18.002Z,3644.00
2018-10-21T09:44:17.929Z,3624.00
2018-10-21T09:45:17.916Z,3616.00
2018-10-21T09:46:18.004Z,3592.00
2018-10-21T09:47:17.897Z,3568.00
2018-10-21T09:48:17.873Z,3560.00
2018-10-21T09:49:18.015Z,3548.00
2018-10-21T09:50:17.859Z,3552.00
2018-10-21T09:51:17.879Z,3556.00
2018-10-21T09:52:17.929Z,3552.00
2018-10-21T09:53:17.841Z,3528.00
2018-10-21T09:54:17.830Z,3492.00
2018-10-21T09:55:17.801Z,3456.00
2018-10-21T09:56:17.785Z,3440.00
2018-10-21T09:57:17.793Z,3420.00
2018-10-21T09:58:17.804Z,3420.00
2018-10-21T09:59:17.764Z,3416.00
2018-10-21T10:00:17.742Z,3408.00
2018-10-21T10:01:17.825Z,3396.00
2018-10-21T10:02:17.732Z,3388.00
2018-10-21T10:03:17.717Z,3392.00
2018-10-21T10:04:17.799Z,3388.00
2018-10-21T10:05:17.771Z,3380.00
2018-10-21T10:06:17.672Z,3380.00
2018-10-21T10:07:17.832Z,3388.00
2018-10-21T10:08:17.664Z,3416.00
2018-10-21T10:09:17.646Z,3440.00
2018-10-21T10:10:17.712Z,3468.00
2018-10-21T10:11:17.617Z,3484.00
2018-10-21T10:12:17.608Z,3484.00
2018-10-21T10:13:17.659Z,3456.00
2018-10-21T10:14:17.590Z,3400.00
2018-10-21T10:15:17.574Z,3332.00
2018-10-21T10:16:17.606Z,3260.00
2018-10-21T10:17:17.566Z,3200.00
2018-10-21T10:18:17.541Z,3160.00
2018-10-21T10:19:17.591Z,3124.00
2018-10-21T10:20:17.525Z,3100.00
2018-10-21T10:21:17.512Z,3072.00
2018-10-21T10:22:17.555Z,3052.00
2018-10-21T10:23:17.547Z,3024.00
2018-10-21T10:24:17.478Z,2996.00
2018-10-21T10:25:17.482Z,2956.00
2018-10-21T10:26:17.450Z,2908.00
2018-10-21T10:27:17.466Z,2896.00
2018-10-21T10:28:17.582Z,2868.00
2018-10-21T10:29:17.419Z,2832.00
2018-10-21T10:30:17.426Z,2804.00
2018-10-21T10:31:17.429Z,2776.00
2018-10-21T10:32:17.391Z,2760.00
2018-10-21T10:33:17.379Z,2736.00
2018-10-21T10:34:17.480Z,2700.00
2018-10-21T10:35:17.351Z,2676.00
2018-10-21T10:36:17.428Z,2668.00
2018-10-21T10:37:17.334Z,2668.00
2018-10-21T10:38:17.317Z,2640.00
2018-10-21T10:39:17.327Z,2620.00
2018-10-21T10:40:17.417Z,2608.00
2018-10-21T10:41:17.309Z,2584.00
2018-10-21T10:42:17.418Z,2560.00
2018-10-21T10:43:17.352Z,2548.00
2018-10-21T10:44:17.264Z,2532.00
2018-10-21T10:45:17.252Z,2500.00
2018-10-21T10:46:17.297Z,2496.00
2018-10-21T10:47:17.220Z,2476.00
2018-10-21T10:48:17.223Z,2452.00
2018-10-21T10:49:17.333Z,2436.00
2018-10-21T10:50:17.190Z,2424.00
2018-10-21T10:51:17.183Z,2400.00
2018-10-21T10:52:17.269Z,2388.00
2018-10-21T10:53:17.158Z,2372.00
2018-10-21T10:54:17.176Z,2356.00
2018-10-21T10:55:17.257Z,2324.00
2018-10-21T10:56:17.125Z,2316.00
2018-10-21T10:57:17.112Z,2308.00
2018-10-21T10:58:17.128Z,2292.00
2018-10-21T10:59:17.099Z,2264.00
2018-10-21T11:00:17.370Z,2244.00
2018-10-21T11:01:17.099Z,2240.00
2018-10-21T11:02:17.054Z,2220.00
2018-10-21T11:03:17.073Z,2212.00
2018-10-21T11:04:17.120Z,2200.00
2018-10-21T11:05:17.033Z,2180.00
2018-10-21T11:06:17.114Z,2152.00
2018-10-21T11:07:17.039Z,2136.00
2018-10-21T11:08:17.013Z,2132.00
2018-10-21T11:09:16.983Z,2116.00
2018-10-21T11:10:17.043Z,2104.00
2018-10-21T11:11:16.967Z,2096.00
2018-10-21T11:12:16.954Z,2100.00
2018-10-21T11:13:17.090Z,2088.00
2018-10-21T11:14:16.948Z,2080.00
2018-10-21T11:15:16.922Z,2076.00
2018-10-21T11:16:17.001Z,2072.00
2018-10-21T11:17:16.909Z,2064.00
2018-10-21T11:18:16.892Z,2064.00
2018-10-21T11:19:16.949Z,2064.00
2018-10-21T11:20:16.869Z,2080.00
2018-10-21T11:21:16.856Z,2084.00
2018-10-21T11:22:16.921Z,2072.00
2018-10-21T11:23:16.842Z,2076.00
2018-10-21T11:24:16.840Z,2064.00
2018-10-21T11:25:16.931Z,2064.00
2018-10-21T11:26:16.828Z,2064.00
2018-10-21T11:27:16.790Z,2068.00
2018-10-21T11:28:16.932Z,2076.00
2018-10-21T11:29:16.772Z,2068.00
2018-10-21T11:30:16.768Z,2076.00
2018-10-21T11:31:16.826Z,2072.00
2018-10-21T11:32:16.741Z,2060.00
2018-10-21T11:33:16.733Z,2056.00
2018-10-21T11:34:16.770Z,2068.00
2018-10-21T11:35:16.730Z,2072.00
2018-10-21T11:36:16.719Z,2068.00
2018-10-21T11:37:16.812Z,2072.00
2018-10-21T11:38:16.685Z,2064.00
2018-10-21T11:39:16.676Z,2060.00
2018-10-21T11:40:16.693Z,2048.00
2018-10-21T11:42:16.625Z,1992.00
2018-10-21T11:43:16.701Z,1980.00
2018-10-21T11:44:16.608Z,1952.00
2018-10-21T11:45:16.622Z,1936.00
2018-10-21T11:46:16.696Z,1916.00
2018-10-21T11:47:16.570Z,1896.00
2018-10-21T11:48:16.574Z,1876.00
2018-10-21T11:49:16.617Z,1852.00
2018-10-21T11:50:16.557Z,1840.00
2018-10-21T11:51:16.539Z,1836.00
2018-10-21T11:52:16.544Z,1824.00
2018-10-21T11:53:16.507Z,1812.00
2018-10-21T11:54:16.494Z,1804.00
2018-10-21T11:55:16.571Z,1816.00
2018-10-21T11:56:16.478Z,1828.00
2018-10-21T11:57:16.480Z,1824.00
2018-10-21T11:58:16.674Z,1840.00
2018-10-21T11:59:16.466Z,1852.00
2018-10-21T12:00:16.431Z,1860.00
2018-10-21T12:01:16.551Z,1888.00
2018-10-21T12:02:16.410Z,1896.00
2018-10-21T12:03:16.418Z,1908.00
2018-10-21T12:04:16.529Z,1932.00
2018-10-21T12:05:16.384Z,1952.00
2018-10-21T12:06:16.376Z,1972.00
2018-10-21T12:07:16.435Z,1992.00
2018-10-21T12:08:16.349Z,2000.00
2018-10-21T12:09:16.344Z,2024.00
2018-10-21T12:10:16.372Z,2040.00
2018-10-21T12:11:16.321Z,2032.00
2018-10-21T12:12:16.309Z,2032.00
2018-10-21T12:13:16.402Z,2044.00
2018-10-21T12:14:16.279Z,2044.00
2018-10-21T12:15:16.284Z,2044.00
2018-10-21T12:16:16.372Z,2056.00
2018-10-21T12:17:16.264Z,2064.00
2018-10-21T12:18:16.243Z,2084.00
2018-10-21T12:19:16.229Z,2068.00
2018-10-21T12:20:16.218Z,2068.00
2018-10-21T12:21:16.224Z,2056.00
2018-10-21T12:22:16.359Z,2052.00
2018-10-21T12:23:16.202Z,2056.00
2018-10-21T12:24:16.172Z,2052.00
2018-10-21T12:25:16.197Z,2016.00
2018-10-21T12:26:16.159Z,2008.00
2018-10-21T12:27:16.145Z,1972.00
2018-10-21T12:28:16.281Z,1964.00
2018-10-21T12:29:16.172Z,1932.00
2018-10-21T12:30:16.115Z,1932.00
2018-10-21T12:31:16.211Z,1936.00
2018-10-21T12:32:16.088Z,1932.00
2018-10-21T12:33:16.078Z,1928.00
2018-10-21T12:34:16.120Z,1932.00
2018-10-21T12:35:16.161Z,1900.00
2018-10-21T12:36:16.047Z,1876.00
2018-10-21T12:37:16.117Z,1860.00